KAKH/AKH METAR and TAF weather

Enter ICAO airport designator
Station Type Date Time Source
KAKH METAR 2018/12/10 17:54 UTC NOAA

KAKH 101754Z AUTO 04012G17KT 10SM OVC030 04/M02 A3007 RMK AO2 SLP188 60007 T00441022 10044 20017 58013


Station Type Date Time Source
KAKH Decoded METAR 2018/12/10 17:54 UTC NOAA

GASTONIA MUNICIPAL AIRPORT, NC, United States (KAKH) 35-12N 81-09W 243M
Dec 10, 2018 - 12:54 PM EST / 2018.12.10 1754 UTC
Wind: from the NE (040 degrees) at 14 MPH (12 KT) gusting to 20 MPH (17 KT):0
Visibility: 10 mile(s):0
Sky conditions: overcast
Temperature: 39.9 F (4.4 C)
Dew Point: 28.0 F (-2.2 C)
Relative Humidity: 62%
Pressure (altimeter): 30.07 in. Hg (1018 hPa)
Pressure tendency: 0.04 inches (1.3 hPa) lower than three hours ago
ob: KAKH 101754Z AUTO 04012G17KT 10SM OVC030 04/M02 A3007 RMK AO2 SLP188 60007 T00441022 10044 20017 58013
cycle: 18

Station Type Date Time Source
KAKH TAF UTC NOAA

Error!


Example: see airport list